createdAt,value
2019-04-28T00:00:41.451Z,96.80
2019-04-28T00:05:51.396Z,94.80
2019-04-28T00:08:22.449Z,94.90
2019-04-28T00:10:53.149Z,94.90
2019-04-28T00:13:21.287Z,94.90
2019-04-28T00:15:55.914Z,95.20
2019-04-28T00:18:34.739Z,95.80
2019-04-28T00:24:35.872Z,94.90
2019-04-28T00:27:11.673Z,94.80
2019-04-28T00:29:46.163Z,94.60
2019-04-28T00:32:21.052Z,94.40
2019-04-28T00:34:54.043Z,92.40
2019-04-28T00:37:26.955Z,93.80
2019-04-28T00:42:52.175Z,93.50
2019-04-28T00:45:22.294Z,93.80
2019-04-28T00:47:55.671Z,94.60
2019-04-28T00:50:37.375Z,93.30
2019-04-28T00:53:07.839Z,96.00
2019-04-28T00:55:36.353Z,94.70
2019-04-28T00:58:11.931Z,94.40
2019-04-28T01:00:52.519Z,94.90
2019-04-28T01:03:34.771Z,93.80
2019-04-28T01:06:03.589Z,94.80
2019-04-28T01:08:32.102Z,95.60
2019-04-28T01:11:24.179Z,96.20
2019-04-28T01:13:57.158Z,95.60
2019-04-28T01:16:46.275Z,96.00
2019-04-28T01:19:20.297Z,96.20
2019-04-28T01:22:22.368Z,96.70
2019-04-28T01:25:10.755Z,96.90
2019-04-28T01:27:44.386Z,96.80
2019-04-28T01:30:17.651Z,97.20
2019-04-28T01:33:11.547Z,97.60
2019-04-28T01:35:44.949Z,98.20
2019-04-28T01:38:16.606Z,97.70
2019-04-28T01:41:21.691Z,97.40
2019-04-28T01:43:55.164Z,97.60
2019-04-28T01:46:39.973Z,98.10
2019-04-28T01:49:11.752Z,98.30
2019-04-28T01:51:43.461Z,98.80
2019-04-28T01:54:16.438Z,99.20
2019-04-28T01:56:46.789Z,98.80
2019-04-28T01:59:21.560Z,98.60
2019-04-28T02:02:00.191Z,98.60
2019-04-28T02:04:32.524Z,98.50
2019-04-28T02:07:06.706Z,98.90
2019-04-28T02:09:49.951Z,98.70
2019-04-28T02:12:17.671Z,99.00
2019-04-28T02:14:52.171Z,99.30
2019-04-28T02:17:27.696Z,99.00
2019-04-28T02:20:00.635Z,99.50
2019-04-28T02:25:39.877Z,99.30
2019-04-28T02:28:11.861Z,99.40
2019-04-28T02:30:49.360Z,99.60
2019-04-28T02:33:21.086Z,99.40
2019-04-28T02:35:57.899Z,99.30
2019-04-28T02:38:34.344Z,99.60
2019-04-28T02:41:11.267Z,99.40
2019-04-28T02:43:41.132Z,99.40
2019-04-28T02:46:20.615Z,99.50
2019-04-28T02:48:54.255Z,99.20
2019-04-28T02:54:44.636Z,99.50
2019-04-28T02:57:14.816Z,99.50
2019-04-28T02:59:55.114Z,99.80
2019-04-28T03:02:32.715Z,99.20
2019-04-28T03:05:11.681Z,99.30
2019-04-28T03:07:41.501Z,99.50
2019-04-28T03:10:13.448Z,99.50
2019-04-28T03:12:51.469Z,99.50
2019-04-28T03:15:30.519Z,99.80
2019-04-28T03:18:05.045Z,99.90
2019-04-28T03:20:54.514Z,99.50
2019-04-28T03:23:47.698Z,99.90
2019-04-28T03:26:36.537Z,99.40
2019-04-28T03:32:44.583Z,99.50
2019-04-28T03:35:05.506Z,99.70
2019-04-28T03:37:41.158Z,99.40
2019-04-28T03:40:13.054Z,99.40
2019-04-28T03:42:51.333Z,99.50
2019-04-28T03:45:22.789Z,99.20
2019-04-28T03:48:01.034Z,99.60
2019-04-28T03:50:35.320Z,99.60
2019-04-28T03:53:07.593Z,99.50
2019-04-28T03:56:04.575Z,99.50
2019-04-28T03:58:44.028Z,99.80
2019-04-28T04:01:14.610Z,99.50
2019-04-28T04:04:06.902Z,99.60
2019-04-28T04:12:36.824Z,99.20
2019-04-28T04:15:27.313Z,99.60
2019-04-28T04:20:52.367Z,99.50
2019-04-28T04:23:27.459Z,99.90
2019-04-28T04:26:22.622Z,99.40
2019-04-28T04:28:57.313Z,99.20
2019-04-28T04:31:47.038Z,99.20
2019-04-28T04:34:15.876Z,99.20
2019-04-28T04:37:06.957Z,98.90
2019-04-28T04:39:43.006Z,98.90
2019-04-28T04:42:23.042Z,98.50
2019-04-28T04:44:55.013Z,98.20
2019-04-28T04:47:33.002Z,98.20
2019-04-28T04:50:26.089Z,98.00
2019-04-28T04:56:25.918Z,98.40
2019-04-28T04:58:54.448Z,99.00
2019-04-28T05:01:26.518Z,98.60
2019-04-28T05:03:56.847Z,98.70
2019-04-28T05:06:44.699Z,97.90
2019-04-28T05:09:20.516Z,98.00
2019-04-28T05:11:51.779Z,97.20
2019-04-28T05:14:29.787Z,97.70
2019-04-28T05:17:16.982Z,97.30
2019-04-28T05:22:42.638Z,97.70
2019-04-28T05:25:24.623Z,97.30
2019-04-28T05:28:03.324Z,96.90
2019-04-28T05:30:59.972Z,96.90
2019-04-28T05:33:41.940Z,96.20
2019-04-28T05:36:09.860Z,96.80
2019-04-28T05:38:40.507Z,96.10
2019-04-28T05:41:16.405Z,96.80
2019-04-28T05:43:51.979Z,95.70
2019-04-28T05:46:22.915Z,96.60
2019-04-28T05:48:57.370Z,96.10
2019-04-28T05:51:32.699Z,95.30
2019-04-28T05:59:52.608Z,96.00
2019-04-28T06:02:22.851Z,94.10
2019-04-28T06:04:59.968Z,95.30
2019-04-28T06:10:39.780Z,97.50
2019-04-28T06:13:13.142Z,95.30
2019-04-28T06:15:47.233Z,96.30
2019-04-28T06:18:24.139Z,95.00
2019-04-28T06:21:07.643Z,95.70
2019-04-28T06:23:44.226Z,94.80
2019-04-28T06:26:18.772Z,94.80
2019-04-28T06:28:53.063Z,96.20
2019-04-28T06:31:26.851Z,96.50
2019-04-28T06:33:55.764Z,93.90
2019-04-28T06:36:28.856Z,92.10
2019-04-28T06:39:03.787Z,93.10
2019-04-28T06:41:35.223Z,92.30
2019-04-28T06:44:49.089Z,92.90
2019-04-28T06:47:09.506Z,92.90
2019-04-28T06:52:37.065Z,93.90
2019-04-28T06:55:10.275Z,90.90
2019-04-28T07:00:35.306Z,91.40
2019-04-28T07:03:29.954Z,92.30
2019-04-28T07:06:03.006Z,91.20
2019-04-28T07:08:32.991Z,92.20
2019-04-28T07:11:03.164Z,89.90
2019-04-28T07:13:47.662Z,94.30
2019-04-28T07:16:20.511Z,90.10
2019-04-28T07:18:55.648Z,90.70
2019-04-28T07:21:39.551Z,90.90
2019-04-28T07:24:20.856Z,88.50
2019-04-28T07:26:46.246Z,88.40
2019-04-28T07:32:04.472Z,91.00
2019-04-28T07:34:41.890Z,92.00
2019-04-28T07:37:21.659Z,91.90
2019-04-28T07:39:57.289Z,92.70
2019-04-28T07:42:53.964Z,93.50
2019-04-28T07:45:31.297Z,93.30
2019-04-28T07:48:04.742Z,92.70
2019-04-28T07:50:38.007Z,93.00
2019-04-28T07:53:17.102Z,93.70
2019-04-28T07:55:54.197Z,94.10
2019-04-28T07:58:22.885Z,94.60
2019-04-28T08:00:58.625Z,91.00
2019-04-28T08:03:57.509Z,87.40
2019-04-28T08:06:27.069Z,87.80
2019-04-28T08:11:44.825Z,87.10
2019-04-28T08:14:23.691Z,93.20
2019-04-28T08:17:03.611Z,86.70
2019-04-28T08:19:46.472Z,84.20
2019-04-28T08:22:22.551Z,84.00
2019-04-28T08:24:54.324Z,84.50
2019-04-28T08:27:35.761Z,84.30
2019-04-28T08:30:07.673Z,78.90
2019-04-28T08:35:57.497Z,74.70
2019-04-28T08:38:39.911Z,72.90
2019-04-28T08:41:25.172Z,75.10
2019-04-28T08:43:55.372Z,75.50
2019-04-28T08:46:30.264Z,79.10
2019-04-28T08:48:59.510Z,74.50
2019-04-28T08:51:28.527Z,72.00
2019-04-28T08:54:00.207Z,67.50
2019-04-28T08:59:42.800Z,65.40
2019-04-28T09:02:19.314Z,67.60
2019-04-28T09:04:49.450Z,67.90
2019-04-28T09:07:37.017Z,66.40
2019-04-28T09:13:12.709Z,71.60
2019-04-28T09:15:46.029Z,66.80
2019-04-28T09:21:28.838Z,70.70
2019-04-28T09:24:16.589Z,67.10
2019-04-28T09:26:48.392Z,64.80
2019-04-28T09:29:27.452Z,67.90
2019-04-28T09:31:57.626Z,67.00
2019-04-28T09:37:26.801Z,62.10
2019-04-28T09:39:58.677Z,60.50
2019-04-28T09:42:34.792Z,66.30
2019-04-28T09:45:24.143Z,65.50
2019-04-28T09:47:57.974Z,56.20
2019-04-28T09:50:28.060Z,55.90
2019-04-28T09:53:03.933Z,63.60
2019-04-28T09:55:35.156Z,60.90
2019-04-28T09:58:07.422Z,59.20
2019-04-28T10:01:07.761Z,61.70
2019-04-28T10:03:57.896Z,60.50
2019-04-28T10:06:27.579Z,57.60
2019-04-28T10:09:03.255Z,58.10
2019-04-28T10:11:45.719Z,60.30
2019-04-28T10:14:19.004Z,58.20
2019-04-28T10:16:49.754Z,58.80
2019-04-28T10:19:40.680Z,62.70
2019-04-28T10:25:44.007Z,58.70
2019-04-28T10:28:15.761Z,59.10
2019-04-28T10:30:54.659Z,55.90
2019-04-28T10:33:24.771Z,51.10
2019-04-28T10:38:55.969Z,46.20
2019-04-28T10:41:35.373Z,55.40
2019-04-28T10:44:08.404Z,49.70
2019-04-28T10:46:41.753Z,48.00
2019-04-28T10:49:35.630Z,45.60
2019-04-28T10:52:11.952Z,47.30
2019-04-28T10:54:42.606Z,46.10
2019-04-28T10:57:12.578Z,50.90
2019-04-28T10:59:44.076Z,48.70
2019-04-28T11:02:23.832Z,48.60
2019-04-28T11:05:08.500Z,48.40
2019-04-28T11:07:39.666Z,49.10
2019-04-28T11:10:29.456Z,54.30
2019-04-28T11:12:59.571Z,52.80
2019-04-28T11:15:53.972Z,48.70
2019-04-28T11:18:40.015Z,49.10
2019-04-28T11:21:01.231Z,49.20
2019-04-28T11:23:30.324Z,50.20
2019-04-28T11:25:58.930Z,47.80
2019-04-28T11:28:31.303Z,48.90
2019-04-28T11:31:01.091Z,45.20
2019-04-28T11:36:29.625Z,44.90
2019-04-28T11:39:04.823Z,44.20
2019-04-28T11:41:37.041Z,48.90
2019-04-28T11:44:13.898Z,43.80
2019-04-28T11:46:49.137Z,50.50
2019-04-28T11:49:20.601Z,41.60
2019-04-28T11:52:03.055Z,48.00
2019-04-28T11:54:42.035Z,47.60
2019-04-28T11:57:23.187Z,44.30
2019-04-28T12:02:47.107Z,43.30
2019-04-28T12:05:34.983Z,36.10
2019-04-28T12:08:15.367Z,36.00
2019-04-28T12:10:51.548Z,39.80
2019-04-28T12:13:32.875Z,46.30
2019-04-28T12:16:19.126Z,50.30
2019-04-28T12:18:59.061Z,48.40
2019-04-28T12:21:33.403Z,52.70
2019-04-28T12:24:18.171Z,53.70
2019-04-28T12:26:53.325Z,56.50
2019-04-28T12:29:28.941Z,56.80
2019-04-28T12:31:58.171Z,57.60
2019-04-28T12:34:43.475Z,58.10
2019-04-28T12:37:09.706Z,58.60
2019-04-28T12:40:15.771Z,61.70
2019-04-28T12:42:54.472Z,58.70
2019-04-28T12:45:35.195Z,60.50
2019-04-28T12:48:14.772Z,60.50
2019-04-28T12:50:54.134Z,59.00
2019-04-28T12:53:32.386Z,55.60
2019-04-28T12:59:00.738Z,58.50
2019-04-28T13:01:41.636Z,58.30
2019-04-28T13:04:14.753Z,59.20
2019-04-28T13:07:06.595Z,61.20
2019-04-28T13:09:41.431Z,61.90
2019-04-28T13:12:17.421Z,61.40
2019-04-28T13:14:46.055Z,59.70
2019-04-28T13:17:22.304Z,59.70
2019-04-28T13:19:55.451Z,59.20
2019-04-28T13:22:24.063Z,60.20
2019-04-28T13:25:00.270Z,60.00
2019-04-28T13:27:31.770Z,58.00
2019-04-28T13:30:00.298Z,58.90
2019-04-28T13:32:34.702Z,62.10
2019-04-28T13:35:03.443Z,60.00
2019-04-28T13:37:33.626Z,59.80
2019-04-28T13:40:11.053Z,59.60
2019-04-28T13:42:44.535Z,57.90
2019-04-28T13:45:24.936Z,60.90
2019-04-28T13:47:59.538Z,58.10
2019-04-28T13:50:34.989Z,58.60
2019-04-28T13:53:06.830Z,55.50
2019-04-28T13:55:46.985Z,56.50
2019-04-28T14:01:13.251Z,57.40
2019-04-28T14:03:51.096Z,55.10
2019-04-28T14:06:28.434Z,57.90
2019-04-28T14:08:57.795Z,59.00
2019-04-28T14:11:41.043Z,56.50
2019-04-28T14:14:15.100Z,59.30
2019-04-28T14:16:43.432Z,59.80
2019-04-28T14:19:14.759Z,59.10
2019-04-28T14:21:53.633Z,59.60
2019-04-28T14:24:29.895Z,53.30
2019-04-28T14:27:11.888Z,54.30
2019-04-28T14:29:49.564Z,55.10
2019-04-28T14:32:18.282Z,55.20
2019-04-28T14:34:51.237Z,54.90
2019-04-28T14:37:27.453Z,53.40
2019-04-28T14:40:01.526Z,54.50
2019-04-28T14:42:34.088Z,52.00
2019-04-28T14:45:09.177Z,53.10
2019-04-28T14:47:51.594Z,53.90
2019-04-28T14:50:22.381Z,56.00
2019-04-28T14:52:59.797Z,54.60
2019-04-28T14:55:42.883Z,53.80
2019-04-28T14:58:16.015Z,54.70
2019-04-28T15:01:03.631Z,54.00
2019-04-28T15:03:39.438Z,56.00
2019-04-28T15:06:15.802Z,56.60
2019-04-28T15:08:50.574Z,59.50
2019-04-28T15:11:35.727Z,63.10
2019-04-28T15:14:04.338Z,60.70
2019-04-28T15:16:46.218Z,62.60
2019-04-28T15:19:16.645Z,64.50
2019-04-28T15:21:49.795Z,61.00
2019-04-28T15:24:30.879Z,67.70
2019-04-28T15:27:07.686Z,70.20
2019-04-28T15:33:04.118Z,71.60
2019-04-28T15:35:43.079Z,73.00
2019-04-28T15:38:19.364Z,71.10
2019-04-28T15:40:56.579Z,72.20
2019-04-28T15:43:34.567Z,73.40
2019-04-28T15:46:32.619Z,75.60
2019-04-28T15:49:03.417Z,76.00
2019-04-28T15:51:40.079Z,73.10
2019-04-28T15:54:14.404Z,72.40
2019-04-28T15:56:46.881Z,76.00
2019-04-28T15:59:18.007Z,74.40
2019-04-28T16:01:56.535Z,74.70
2019-04-28T16:04:32.174Z,76.20
2019-04-28T16:07:24.974Z,73.50
2019-04-28T16:10:04.562Z,72.20
2019-04-28T16:12:44.591Z,72.50
2019-04-28T16:15:14.924Z,74.00
2019-04-28T16:17:43.472Z,73.80
2019-04-28T16:20:23.575Z,74.20
2019-04-28T16:22:55.830Z,74.10
2019-04-28T16:25:31.375Z,73.90
2019-04-28T16:28:10.772Z,73.30
2019-04-28T16:30:46.163Z,75.30
2019-04-28T16:33:20.370Z,74.60
2019-04-28T16:35:54.023Z,76.00
2019-04-28T16:38:24.100Z,73.90
2019-04-28T16:41:37.951Z,73.60
2019-04-28T16:43:41.533Z,71.00
2019-04-28T16:46:11.935Z,71.70
2019-04-28T16:49:01.375Z,72.90
2019-04-28T16:51:27.419Z,73.80
2019-04-28T16:54:02.998Z,74.90
2019-04-28T16:56:55.519Z,69.80
2019-04-28T16:59:45.129Z,70.90
2019-04-28T17:02:27.034Z,71.90
2019-04-28T17:05:01.432Z,68.60
2019-04-28T17:07:52.534Z,68.60
2019-04-28T17:10:22.575Z,67.10
2019-04-28T17:13:45.916Z,68.60
2019-04-28T17:15:36.193Z,67.50
2019-04-28T17:18:12.147Z,68.20
2019-04-28T17:20:55.092Z,67.10
2019-04-28T17:26:24.947Z,66.20
2019-04-28T17:28:56.185Z,67.30
2019-04-28T17:31:36.432Z,63.10
2019-04-28T17:34:09.453Z,64.30
2019-04-28T17:36:47.208Z,65.70
2019-04-28T17:39:34.988Z,66.30
2019-04-28T17:42:08.414Z,67.20
2019-04-28T17:44:38.638Z,66.00
2019-04-28T17:47:10.456Z,67.10
2019-04-28T17:49:39.931Z,66.20
2019-04-28T17:52:18.227Z,65.60
2019-04-28T17:54:48.967Z,64.90
2019-04-28T17:57:25.605Z,65.90
2019-04-28T18:00:09.114Z,66.70
2019-04-28T18:11:28.892Z,69.90
2019-04-28T18:13:59.576Z,70.60
2019-04-28T18:16:35.801Z,71.30
2019-04-28T18:19:09.556Z,71.60
2019-04-28T18:21:41.562Z,73.00
2019-04-28T18:24:17.500Z,73.90
2019-04-28T18:26:59.486Z,74.90
2019-04-28T18:29:39.477Z,75.40
2019-04-28T18:32:21.926Z,75.80
2019-04-28T18:34:53.659Z,76.80
2019-04-28T18:37:43.333Z,77.80
2019-04-28T18:40:27.265Z,78.30
2019-04-28T18:45:46.357Z,79.50
2019-04-28T18:51:19.445Z,80.20
2019-04-28T18:53:56.719Z,80.30
2019-04-28T18:56:27.865Z,79.60
2019-04-28T18:58:59.878Z,81.10
2019-04-28T19:01:30.678Z,81.50
2019-04-28T19:04:26.275Z,82.00
2019-04-28T19:07:08.249Z,81.80
2019-04-28T19:12:36.558Z,81.50
2019-04-28T19:15:10.853Z,81.70
2019-04-28T19:17:46.874Z,81.20
2019-04-28T19:20:32.191Z,80.70
2019-04-28T19:23:03.822Z,81.70
2019-04-28T19:26:07.860Z,82.60
2019-04-28T19:28:36.617Z,82.60
2019-04-28T19:31:13.909Z,82.50
2019-04-28T19:33:49.424Z,82.20
2019-04-28T19:36:27.814Z,82.60
2019-04-28T19:39:23.047Z,82.70
2019-04-28T19:42:00.178Z,83.50
2019-04-28T19:44:33.037Z,83.70
2019-04-28T19:47:05.912Z,83.50
2019-04-28T19:49:36.275Z,83.30
2019-04-28T19:52:12.539Z,83.50
2019-04-28T19:54:42.358Z,83.60
2019-04-28T19:57:13.823Z,84.00
2019-04-28T20:00:09.748Z,84.00
2019-04-28T20:03:01.050Z,84.20
2019-04-28T20:05:37.168Z,83.60
2019-04-28T20:11:05.499Z,84.90
2019-04-28T20:13:40.849Z,85.20
2019-04-28T20:16:13.959Z,85.50
2019-04-28T20:18:45.372Z,86.10
2019-04-28T20:21:15.274Z,86.80
2019-04-28T20:23:43.910Z,87.40
2019-04-28T20:26:16.480Z,87.60
2019-04-28T20:28:49.453Z,87.70
2019-04-28T20:31:22.769Z,88.20
2019-04-28T20:34:05.475Z,88.30
2019-04-28T20:36:43.315Z,87.20
2019-04-28T20:39:33.486Z,88.20
2019-04-28T20:42:21.545Z,88.60
2019-04-28T20:45:12.459Z,89.20
2019-04-28T20:47:35.170Z,88.70
2019-04-28T20:50:25.090Z,88.50
2019-04-28T20:53:55.056Z,88.40
2019-04-28T20:55:54.821Z,87.80
2019-04-28T20:58:24.786Z,88.90
2019-04-28T21:00:58.087Z,88.50
2019-04-28T21:03:31.265Z,88.30
2019-04-28T21:09:09.505Z,90.50
2019-04-28T21:11:41.446Z,89.90
2019-04-28T21:14:15.335Z,89.50
2019-04-28T21:16:47.007Z,89.40
2019-04-28T21:19:20.393Z,89.10
2019-04-28T21:21:51.965Z,88.80
2019-04-28T21:24:25.147Z,89.20
2019-04-28T21:26:59.281Z,89.10
2019-04-28T21:29:32.701Z,88.70
2019-04-28T21:32:16.295Z,89.00
2019-04-28T21:34:52.716Z,89.50
2019-04-28T21:37:22.942Z,89.50
2019-04-28T21:39:55.047Z,90.00
2019-04-28T21:42:51.211Z,89.70
2019-04-28T21:45:26.202Z,89.90
2019-04-28T21:50:39.231Z,89.60
2019-04-28T21:53:16.010Z,89.20
2019-04-28T21:55:53.827Z,88.60
2019-04-28T22:01:38.567Z,90.70
2019-04-28T22:04:13.020Z,90.70
2019-04-28T22:06:45.283Z,92.30
2019-04-28T22:09:21.046Z,91.70
2019-04-28T22:11:59.284Z,91.20
2019-04-28T22:14:32.608Z,90.80
2019-04-28T22:17:12.322Z,90.50
2019-04-28T22:19:52.807Z,90.70
2019-04-28T22:22:24.567Z,90.50
2019-04-28T22:28:17.680Z,90.60
2019-04-28T22:30:55.781Z,91.00
2019-04-28T22:33:29.770Z,91.30
2019-04-28T22:36:02.815Z,91.00
2019-04-28T22:38:51.952Z,90.80
2019-04-28T22:41:43.728Z,90.90
2019-04-28T22:44:15.567Z,91.30
2019-04-28T22:46:45.980Z,91.50
2019-04-28T22:49:22.133Z,91.20
2019-04-28T22:51:46.602Z,91.30
2019-04-28T22:54:22.200Z,91.10
2019-04-28T22:57:25.997Z,91.00
2019-04-28T22:59:45.185Z,90.50
2019-04-28T23:02:30.947Z,90.60
2019-04-28T23:05:30.221Z,90.60
2019-04-28T23:07:45.373Z,90.50
2019-04-28T23:10:26.013Z,90.70
2019-04-28T23:12:59.891Z,90.50
2019-04-28T23:15:44.121Z,90.90
2019-04-28T23:18:14.446Z,91.80
2019-04-28T23:21:28.633Z,91.90
2019-04-28T23:24:01.638Z,92.00
2019-04-28T23:26:33.356Z,91.70
2019-04-28T23:29:04.498Z,91.00
2019-04-28T23:31:36.463Z,90.30
2019-04-28T23:34:14.706Z,91.00
2019-04-28T23:37:21.403Z,91.40
2019-04-28T23:39:52.551Z,91.30
2019-04-28T23:42:35.206Z,91.00
2019-04-28T23:45:13.260Z,91.50
2019-04-28T23:47:47.170Z,91.30
2019-04-28T23:50:31.626Z,91.00
2019-04-28T23:53:06.643Z,91.10
2019-04-28T23:55:40.752Z,91.60
2019-04-28T23:58:12.896Z,91.20
